createdAt,value
2018-08-13T00:01:41.596Z,2.65
2018-08-13T00:04:13.106Z,3.05
2018-08-13T00:06:44.636Z,2.60
2018-08-13T00:09:22.368Z,2.90
2018-08-13T00:11:54.217Z,2.83
2018-08-13T00:14:25.806Z,2.77
2018-08-13T00:16:57.527Z,2.52
2018-08-13T00:19:28.974Z,2.67
2018-08-13T00:22:00.623Z,2.92
2018-08-13T00:24:32.441Z,2.40
2018-08-13T00:27:03.734Z,2.70
2018-08-13T00:29:35.142Z,2.60
2018-08-13T00:32:06.487Z,5.00
2018-08-13T00:34:37.936Z,2.83
2018-08-13T00:37:09.260Z,3.10
2018-08-13T00:39:40.775Z,2.70
2018-08-13T00:42:12.416Z,2.40
2018-08-13T00:44:43.843Z,2.62
2018-08-13T00:47:15.372Z,3.08
2018-08-13T00:49:46.561Z,3.05
2018-08-13T00:52:18.015Z,3.00
2018-08-13T00:54:49.454Z,2.58
2018-08-13T00:57:20.935Z,2.83
2018-08-13T00:59:52.374Z,2.98
2018-08-13T01:02:23.902Z,3.12
2018-08-13T01:04:55.448Z,2.75
2018-08-13T01:07:26.732Z,2.65
2018-08-13T01:09:58.109Z,3.10
2018-08-13T01:12:29.919Z,3.20
2018-08-13T01:15:01.434Z,2.92
2018-08-13T01:17:32.847Z,3.55
2018-08-13T01:20:04.394Z,3.00
2018-08-13T01:22:35.899Z,3.15
2018-08-13T01:25:09.270Z,3.37
2018-08-13T01:27:40.906Z,3.40
2018-08-13T01:30:13.749Z,3.45
2018-08-13T01:32:45.303Z,3.22
2018-08-13T01:35:16.706Z,3.40
2018-08-13T01:37:48.128Z,3.30
2018-08-13T01:40:19.519Z,3.08
2018-08-13T01:42:51.002Z,3.50
2018-08-13T01:45:22.771Z,3.50
2018-08-13T01:47:54.081Z,3.27
2018-08-13T01:50:25.505Z,3.90
2018-08-13T01:52:57.106Z,3.67
2018-08-13T01:55:28.753Z,3.67
2018-08-13T01:58:00.160Z,3.10
2018-08-13T02:00:32.374Z,3.37
2018-08-13T02:03:03.801Z,3.70
2018-08-13T02:05:35.377Z,3.40
2018-08-13T02:08:07.147Z,3.25
2018-08-13T02:10:38.483Z,3.60
2018-08-13T02:13:09.948Z,3.27
2018-08-13T02:15:41.287Z,3.52
2018-08-13T02:18:12.912Z,3.22
2018-08-13T02:20:44.377Z,2.83
2018-08-13T02:23:15.929Z,3.42
2018-08-13T02:25:47.747Z,3.47
2018-08-13T02:28:19.366Z,3.40
2018-08-13T02:30:50.681Z,3.30
2018-08-13T02:33:21.955Z,3.30
2018-08-13T02:35:53.659Z,3.40
2018-08-13T02:38:25.300Z,3.57
2018-08-13T02:40:56.908Z,3.33
2018-08-13T02:43:28.538Z,3.22
2018-08-13T02:45:59.952Z,3.60
2018-08-13T02:48:31.485Z,3.27
2018-08-13T02:51:03.067Z,3.83
2018-08-13T02:53:34.493Z,4.20
2018-08-13T02:56:05.896Z,3.62
2018-08-13T02:58:37.214Z,3.87
2018-08-13T03:01:09.225Z,3.80
2018-08-13T03:03:40.510Z,3.50
2018-08-13T03:06:12.259Z,3.30
2018-08-13T03:08:43.707Z,4.00
2018-08-13T03:11:15.640Z,4.05
2018-08-13T03:13:47.228Z,3.60
2018-08-13T03:16:18.965Z,3.93
2018-08-13T03:18:51.259Z,3.85
2018-08-13T03:21:22.727Z,3.92
2018-08-13T03:23:54.466Z,3.42
2018-08-13T03:26:25.865Z,3.65
2018-08-13T03:28:57.404Z,3.62
2018-08-13T03:31:28.972Z,3.40
2018-08-13T03:34:00.542Z,3.97
2018-08-13T03:36:32.008Z,3.50
2018-08-13T03:39:03.474Z,3.40
2018-08-13T03:41:35.026Z,3.77
2018-08-13T03:44:06.473Z,4.35
2018-08-13T03:46:38.771Z,3.77
2018-08-13T03:49:11.601Z,3.60
2018-08-13T03:51:43.188Z,3.40
2018-08-13T03:54:14.733Z,3.33
2018-08-13T03:56:46.051Z,3.77
2018-08-13T03:59:17.452Z,3.37
2018-08-13T04:01:48.942Z,3.87
2018-08-13T04:04:20.842Z,4.43
2018-08-13T04:06:52.355Z,3.95
2018-08-13T04:09:23.704Z,3.53
2018-08-13T04:11:54.957Z,3.60
2018-08-13T04:14:26.535Z,3.15
2018-08-13T04:17:01.632Z,3.17
2018-08-13T04:19:34.284Z,3.27
2018-08-13T04:22:06.297Z,3.25
2018-08-13T04:24:37.985Z,3.20
2018-08-13T04:27:09.504Z,3.02
2018-08-13T04:29:41.079Z,3.30
2018-08-13T04:32:12.476Z,3.65
2018-08-13T04:34:44.077Z,3.42
2018-08-13T04:37:15.431Z,3.02
2018-08-13T04:39:47.088Z,3.02
2018-08-13T04:42:18.500Z,3.87
2018-08-13T04:44:49.862Z,3.45
2018-08-13T04:47:21.102Z,3.10
2018-08-13T04:49:52.461Z,3.22
2018-08-13T04:52:23.867Z,3.50
2018-08-13T04:54:55.660Z,3.37
2018-08-13T04:57:27.760Z,3.85
2018-08-13T04:59:59.316Z,3.65
2018-08-13T05:02:30.877Z,3.90
2018-08-13T05:05:02.230Z,4.33
2018-08-13T05:07:33.743Z,4.08
2018-08-13T05:10:05.868Z,3.70
2018-08-13T05:12:37.161Z,4.20
2018-08-13T05:15:09.546Z,3.40
2018-08-13T05:17:40.840Z,3.50
2018-08-13T05:20:12.362Z,3.80
2018-08-13T05:22:43.750Z,3.80
2018-08-13T05:25:15.419Z,4.22
2018-08-13T05:27:46.754Z,4.12
2018-08-13T05:30:18.346Z,4.62
2018-08-13T05:32:49.719Z,4.28
2018-08-13T05:35:21.439Z,4.22
2018-08-13T05:37:52.936Z,3.92
2018-08-13T05:40:24.471Z,4.72
2018-08-13T05:42:55.972Z,3.58
2018-08-13T05:45:27.394Z,4.30
2018-08-13T05:47:58.874Z,4.10
2018-08-13T05:50:31.181Z,4.12
2018-08-13T05:53:02.928Z,4.10
2018-08-13T05:55:34.311Z,4.33
2018-08-13T05:58:05.810Z,3.98
2018-08-13T06:00:37.352Z,3.75
2018-08-13T06:03:09.077Z,3.90
2018-08-13T06:05:40.544Z,3.58
2018-08-13T06:08:12.519Z,3.90
2018-08-13T06:10:44.112Z,4.05
2018-08-13T06:13:15.452Z,3.60
2018-08-13T06:15:47.070Z,3.87
2018-08-13T06:18:18.485Z,3.77
2018-08-13T06:20:49.772Z,4.42
2018-08-13T06:23:21.068Z,4.25
2018-08-13T06:25:52.400Z,4.03
2018-08-13T06:28:25.047Z,4.50
2018-08-13T06:30:56.622Z,4.40
2018-08-13T06:33:27.989Z,4.37
2018-08-13T06:35:59.541Z,4.72
2018-08-13T06:38:31.060Z,3.98
2018-08-13T06:41:02.344Z,4.45
2018-08-13T06:43:33.773Z,4.15
2018-08-13T06:46:05.358Z,4.65
2018-08-13T06:48:36.938Z,4.67
2018-08-13T06:51:08.433Z,4.55
2018-08-13T06:53:40.693Z,4.33
2018-08-13T06:56:12.458Z,4.87
2018-08-13T06:58:43.911Z,4.10
2018-08-13T07:01:15.268Z,5.03
2018-08-13T07:03:46.788Z,4.80
2018-08-13T07:06:18.108Z,4.90
2018-08-13T07:08:49.569Z,4.42
2018-08-13T07:11:21.081Z,5.03
2018-08-13T07:13:52.586Z,4.85
2018-08-13T07:16:24.170Z,4.58
2018-08-13T07:18:55.940Z,4.67
2018-08-13T07:21:27.507Z,4.15
2018-08-13T07:23:59.053Z,4.92
2018-08-13T07:26:30.618Z,4.50
2018-08-13T07:29:02.268Z,5.03
2018-08-13T07:31:33.532Z,5.00
2018-08-13T07:34:04.994Z,5.95
2018-08-13T07:36:36.446Z,5.92
2018-08-13T07:39:10.738Z,5.30
2018-08-13T07:41:42.168Z,6.47
2018-08-13T07:44:13.781Z,5.72
2018-08-13T07:46:45.124Z,6.28
2018-08-13T07:49:16.649Z,5.92
2018-08-13T07:51:48.451Z,5.87
2018-08-13T07:54:19.809Z,5.33
2018-08-13T07:56:51.287Z,5.33
2018-08-13T07:59:23.212Z,5.42
2018-08-13T08:01:55.071Z,5.70
2018-08-13T08:04:26.417Z,4.97
2018-08-13T08:06:58.972Z,5.45
2018-08-13T08:09:30.740Z,5.50
2018-08-13T08:12:02.137Z,5.87
2018-08-13T08:14:33.572Z,5.90
2018-08-13T08:17:04.999Z,5.78
2018-08-13T08:19:36.540Z,5.15
2018-08-13T08:22:08.309Z,6.00
2018-08-13T08:24:39.897Z,6.20
2018-08-13T08:27:11.940Z,5.87
2018-08-13T08:29:43.384Z,5.97
2018-08-13T08:32:14.793Z,5.80
2018-08-13T08:34:46.197Z,6.30
2018-08-13T08:37:17.442Z,5.87
2018-08-13T08:39:49.181Z,6.12
2018-08-13T08:42:20.581Z,6.87
2018-08-13T08:44:52.134Z,6.45
2018-08-13T08:47:23.556Z,6.78
2018-08-13T08:49:55.390Z,7.12
2018-08-13T08:52:26.943Z,7.00
2018-08-13T08:54:58.899Z,7.35
2018-08-13T08:57:30.425Z,6.83
2018-08-13T09:00:02.076Z,7.20
2018-08-13T09:02:33.701Z,7.30
2018-08-13T09:05:05.711Z,7.05
2018-08-13T09:07:37.248Z,6.90
2018-08-13T09:10:09.106Z,7.25
2018-08-13T09:12:40.802Z,6.75
2018-08-13T09:15:15.550Z,7.33
2018-08-13T09:18:02.944Z,6.92
2018-08-13T09:20:50.346Z,6.60
2018-08-13T09:23:37.379Z,6.97
2018-08-13T09:26:24.393Z,6.55
2018-08-13T09:29:11.822Z,7.58
2018-08-13T09:32:22.428Z,7.58
2018-08-13T09:35:15.854Z,7.10
2018-08-13T09:37:47.517Z,6.85
2018-08-13T09:40:19.468Z,7.40
2018-08-13T09:42:51.787Z,7.35
2018-08-13T09:45:23.211Z,7.42
2018-08-13T09:47:54.693Z,7.62
2018-08-13T09:50:27.168Z,6.65
2018-08-13T09:52:58.596Z,7.28
2018-08-13T09:55:30.158Z,7.28
2018-08-13T09:58:01.601Z,7.15
2018-08-13T10:00:37.938Z,7.58
2018-08-13T10:03:10.016Z,8.48
2018-08-13T10:05:41.497Z,7.30
2018-08-13T10:08:12.816Z,8.05
2018-08-13T10:10:44.521Z,8.90
2018-08-13T10:13:15.831Z,8.40
2018-08-13T10:15:47.355Z,8.20
2018-08-13T10:18:18.822Z,8.15
2018-08-13T10:20:50.332Z,8.80
2018-08-13T10:23:21.778Z,8.28
2018-08-13T10:25:53.166Z,8.10
2018-08-13T10:28:24.532Z,8.95
2018-08-13T10:30:55.801Z,9.15
2018-08-13T10:33:27.394Z,8.40
2018-08-13T10:35:58.881Z,8.25
2018-08-13T10:38:30.425Z,8.55
2018-08-13T10:41:02.051Z,8.73
2018-08-13T10:43:33.535Z,8.63
2018-08-13T10:46:05.216Z,7.58
2018-08-13T10:48:36.633Z,8.08
2018-08-13T10:51:08.103Z,7.87
2018-08-13T10:53:39.535Z,7.85
2018-08-13T10:56:11.231Z,7.78
2018-08-13T10:58:43.038Z,8.00
2018-08-13T11:01:14.524Z,8.55
2018-08-13T11:03:45.776Z,7.72
2018-08-13T11:06:17.154Z,7.97
2018-08-13T11:08:48.762Z,8.40
2018-08-13T11:11:20.199Z,8.40
2018-08-13T11:13:52.050Z,8.50
2018-08-13T11:16:23.603Z,8.18
2018-08-13T11:18:54.969Z,7.67
2018-08-13T11:21:26.625Z,7.90
2018-08-13T11:23:58.362Z,8.13
2018-08-13T11:26:29.907Z,7.90
2018-08-13T11:29:01.365Z,8.18
2018-08-13T11:31:32.847Z,8.75
2018-08-13T11:34:04.499Z,8.18
2018-08-13T11:36:36.242Z,8.30
2018-08-13T11:39:11.751Z,8.68
2018-08-13T11:41:43.382Z,8.20
2018-08-13T11:44:14.803Z,8.08
2018-08-13T11:46:46.331Z,9.03
2018-08-13T11:49:18.066Z,9.23
2018-08-13T11:51:49.667Z,8.40
2018-08-13T11:54:21.113Z,8.10
2018-08-13T11:56:52.655Z,8.38
2018-08-13T11:59:24.090Z,8.45
2018-08-13T12:01:55.539Z,8.30
2018-08-13T12:04:26.859Z,8.48
2018-08-13T12:06:58.280Z,8.50
2018-08-13T12:09:29.757Z,8.68
2018-08-13T12:12:01.124Z,8.18
2018-08-13T12:14:32.627Z,9.28
2018-08-13T12:17:04.013Z,8.20
2018-08-13T12:19:35.464Z,7.45
2018-08-13T12:22:06.872Z,8.35
2018-08-13T12:24:38.030Z,7.47
2018-08-13T12:27:09.697Z,7.80
2018-08-13T12:29:41.149Z,8.28
2018-08-13T12:32:12.476Z,7.92
2018-08-13T12:34:44.015Z,9.68
2018-08-13T12:37:15.667Z,7.62
2018-08-13T12:39:47.203Z,7.08
2018-08-13T12:42:18.898Z,7.65
2018-08-13T12:44:50.240Z,7.65
2018-08-13T12:47:21.940Z,7.35
2018-08-13T12:49:53.465Z,8.00
2018-08-13T12:52:25.054Z,7.33
2018-08-13T12:54:56.454Z,7.65
2018-08-13T12:57:28.000Z,7.20
2018-08-13T12:59:59.454Z,7.90
2018-08-13T13:02:30.853Z,9.33
2018-08-13T13:05:02.526Z,6.85
2018-08-13T13:07:34.286Z,7.72
2018-08-13T13:10:06.987Z,7.65
2018-08-13T13:12:38.682Z,7.65
2018-08-13T13:15:12.706Z,7.65
2018-08-13T13:17:44.117Z,7.35
2018-08-13T13:20:22.869Z,7.70
2018-08-13T13:22:54.185Z,7.42
2018-08-13T13:25:25.818Z,8.30
2018-08-13T13:27:57.357Z,8.28
2018-08-13T13:30:28.869Z,9.43
2018-08-13T13:33:00.155Z,7.55
2018-08-13T13:35:31.415Z,8.23
2018-08-13T13:38:03.071Z,8.18
2018-08-13T13:40:34.603Z,8.15
2018-08-13T13:43:06.176Z,8.20
2018-08-13T13:45:38.231Z,8.15
2018-08-13T13:48:09.774Z,7.90
2018-08-13T13:50:41.187Z,8.63
2018-08-13T13:53:12.678Z,8.25
2018-08-13T13:55:43.840Z,9.88
2018-08-13T13:58:15.317Z,8.38
2018-08-13T14:00:46.943Z,7.75
2018-08-13T14:03:18.404Z,8.48
2018-08-13T14:05:49.549Z,9.73
2018-08-13T14:08:21.061Z,8.78
2018-08-13T14:10:52.343Z,8.30
2018-08-13T14:13:23.908Z,8.58
2018-08-13T14:15:55.323Z,8.73
2018-08-13T14:18:26.912Z,8.60
2018-08-13T14:20:58.319Z,8.90
2018-08-13T14:23:29.889Z,8.95
2018-08-13T14:26:01.345Z,8.25
2018-08-13T14:28:32.710Z,8.15
2018-08-13T14:31:04.042Z,8.88
2018-08-13T14:33:35.528Z,8.45
2018-08-13T14:36:06.975Z,10.08
2018-08-13T14:38:38.514Z,9.55
2018-08-13T14:41:10.224Z,8.70
2018-08-13T14:43:41.523Z,9.43
2018-08-13T14:46:13.216Z,8.85
2018-08-13T14:48:44.862Z,8.90
2018-08-13T14:51:16.299Z,9.33
2018-08-13T14:53:47.433Z,9.30
2018-08-13T14:56:18.837Z,9.43
2018-08-13T14:58:50.030Z,9.55
2018-08-13T15:01:21.185Z,9.08
2018-08-13T15:03:52.760Z,8.80
2018-08-13T15:06:24.299Z,8.88
2018-08-13T15:08:56.235Z,10.95
2018-08-13T15:11:32.635Z,10.03
2018-08-13T15:14:04.575Z,10.03
2018-08-13T15:16:35.941Z,9.20
2018-08-13T15:19:07.688Z,9.83
2018-08-13T15:21:39.101Z,10.43
2018-08-13T15:24:10.576Z,9.98
2018-08-13T15:26:42.639Z,9.40
2018-08-13T15:29:13.890Z,9.68
2018-08-13T15:31:45.299Z,10.98
2018-08-13T15:34:16.893Z,10.35
2018-08-13T15:36:48.128Z,10.80
2018-08-13T15:39:19.690Z,10.10
2018-08-13T15:41:51.385Z,10.48
2018-08-13T15:44:22.875Z,10.80
2018-08-13T15:46:54.101Z,9.40
2018-08-13T15:49:25.518Z,10.43
2018-08-13T15:51:57.001Z,9.78
2018-08-13T15:54:28.390Z,10.10
2018-08-13T15:56:59.701Z,10.58
2018-08-13T15:59:31.487Z,9.93
2018-08-13T16:02:03.156Z,10.72
2018-08-13T16:04:34.808Z,9.65
2018-08-13T16:07:09.657Z,10.40
2018-08-13T16:09:41.524Z,10.60
2018-08-13T16:12:13.201Z,10.80
2018-08-13T16:14:44.808Z,10.70
2018-08-13T16:17:16.374Z,11.25
2018-08-13T16:19:47.935Z,11.57
2018-08-13T16:22:19.379Z,10.88
2018-08-13T16:24:50.630Z,11.03
2018-08-13T16:27:22.170Z,11.38
2018-08-13T16:29:53.751Z,10.95
2018-08-13T16:32:25.314Z,11.35
2018-08-13T16:34:56.719Z,11.38
2018-08-13T16:37:28.054Z,11.18
2018-08-13T16:39:59.371Z,10.45
2018-08-13T16:42:30.653Z,11.05
2018-08-13T16:45:02.177Z,12.05
2018-08-13T16:47:33.500Z,11.73
2018-08-13T16:50:07.876Z,11.12
2018-08-13T16:52:39.367Z,10.82
2018-08-13T16:55:12.358Z,11.60
2018-08-13T16:57:44.331Z,10.32
2018-08-13T17:00:18.476Z,10.75
2018-08-13T17:02:50.354Z,11.25
2018-08-13T17:05:22.110Z,10.68
2018-08-13T17:07:53.837Z,9.85
2018-08-13T17:10:26.713Z,11.60
2018-08-13T17:12:58.688Z,11.22
2018-08-13T17:15:32.379Z,11.00
2018-08-13T17:18:04.361Z,11.75
2018-08-13T17:20:41.794Z,10.18
2018-08-13T17:23:13.407Z,10.43
2018-08-13T17:25:44.940Z,11.22
2018-08-13T17:28:17.949Z,11.57
2018-08-13T17:30:49.232Z,11.25
2018-08-13T17:33:20.764Z,10.90
2018-08-13T17:35:52.643Z,12.07
2018-08-13T17:38:24.151Z,10.95
2018-08-13T17:40:55.485Z,11.22
2018-08-13T17:43:26.895Z,11.97
2018-08-13T17:45:58.502Z,11.53
2018-08-13T17:48:29.930Z,11.88
2018-08-13T17:51:01.398Z,12.00
2018-08-13T17:53:32.903Z,11.38
2018-08-13T17:56:06.144Z,11.45
2018-08-13T17:58:37.408Z,12.80
2018-08-13T18:01:09.352Z,11.28
2018-08-13T18:03:40.827Z,12.23
2018-08-13T18:06:12.448Z,11.03
2018-08-13T18:08:43.709Z,13.93
2018-08-13T18:11:15.148Z,12.90
2018-08-13T18:13:46.960Z,13.65
2018-08-13T18:16:18.475Z,11.48
2018-08-13T18:18:49.941Z,10.25
2018-08-13T18:21:21.476Z,11.83
2018-08-13T18:23:52.974Z,11.83
2018-08-13T18:26:24.528Z,17.60
2018-08-13T18:28:56.044Z,12.47
2018-08-13T18:31:27.693Z,15.45
2018-08-13T18:33:59.434Z,11.97
2018-08-13T18:36:30.941Z,11.95
2018-08-13T18:39:02.708Z,11.68
2018-08-13T18:41:34.543Z,12.03
2018-08-13T18:44:06.805Z,12.45
2018-08-13T18:46:38.221Z,11.55
2018-08-13T18:49:09.602Z,12.28
2018-08-13T18:51:41.359Z,11.63
2018-08-13T18:54:12.579Z,12.15
2018-08-13T18:56:44.092Z,27.05
2018-08-13T18:59:16.100Z,47.55
2018-08-13T19:01:47.541Z,20.97
2018-08-13T19:04:19.044Z,12.23
2018-08-13T19:06:50.641Z,12.07
2018-08-13T19:09:22.076Z,10.78
2018-08-13T19:11:53.804Z,12.30
2018-08-13T19:14:25.428Z,12.05
2018-08-13T19:16:56.788Z,12.10
2018-08-13T19:19:28.119Z,12.05
2018-08-13T19:21:59.599Z,12.30
2018-08-13T19:24:31.680Z,11.85
2018-08-13T19:27:03.540Z,12.50
2018-08-13T19:29:35.098Z,11.45
2018-08-13T19:32:06.639Z,12.18
2018-08-13T19:34:38.099Z,12.23
2018-08-13T19:37:09.886Z,12.10
2018-08-13T19:39:41.744Z,13.48
2018-08-13T19:42:13.245Z,13.22
2018-08-13T19:44:44.568Z,12.80
2018-08-13T19:47:15.997Z,11.65
2018-08-13T19:49:47.851Z,12.50
2018-08-13T19:52:19.303Z,12.53
2018-08-13T19:54:50.858Z,12.73
2018-08-13T19:57:22.470Z,12.75
2018-08-13T19:59:54.716Z,12.85
2018-08-13T20:02:26.479Z,13.20
2018-08-13T20:04:57.966Z,12.82
2018-08-13T20:07:29.680Z,13.05
2018-08-13T20:10:01.506Z,12.47
2018-08-13T20:12:32.910Z,14.07
2018-08-13T20:15:04.449Z,13.30
2018-08-13T20:17:36.019Z,13.75
2018-08-13T20:20:11.358Z,13.78
2018-08-13T20:22:43.276Z,13.65
2018-08-13T20:25:16.318Z,13.25
2018-08-13T20:27:49.599Z,13.53
2018-08-13T20:30:22.986Z,13.00
2018-08-13T20:32:54.680Z,12.82
2018-08-13T20:35:26.219Z,14.07
2018-08-13T20:37:57.842Z,12.75
2018-08-13T20:40:29.588Z,14.10
2018-08-13T20:43:01.168Z,13.58
2018-08-13T20:45:32.948Z,13.93
2018-08-13T20:48:04.460Z,13.68
2018-08-13T20:50:35.920Z,13.88
2018-08-13T20:53:07.629Z,14.85
2018-08-13T20:55:39.052Z,14.40
2018-08-13T20:58:10.580Z,15.60
2018-08-13T21:00:42.193Z,15.78
2018-08-13T21:03:13.579Z,14.78
2018-08-13T21:05:45.210Z,14.33
2018-08-13T21:08:16.722Z,14.75
2018-08-13T21:10:48.516Z,15.23
2018-08-13T21:13:20.177Z,14.55
2018-08-13T21:15:51.836Z,14.15
2018-08-13T21:18:24.305Z,14.25
2018-08-13T21:20:56.167Z,14.85
2018-08-13T21:23:27.549Z,15.50
2018-08-13T21:25:59.079Z,15.23
2018-08-13T21:28:30.652Z,14.15
2018-08-13T21:31:02.271Z,15.08
2018-08-13T21:33:33.705Z,14.50
2018-08-13T21:36:05.094Z,14.30
2018-08-13T21:38:36.785Z,15.20
2018-08-13T21:41:08.466Z,15.08
2018-08-13T21:43:39.932Z,16.12
2018-08-13T21:46:11.577Z,15.30
2018-08-13T21:48:43.835Z,15.32
2018-08-13T21:51:15.251Z,15.03
2018-08-13T21:53:46.778Z,15.23
2018-08-13T21:56:18.204Z,15.38
2018-08-13T21:58:49.472Z,15.50
2018-08-13T22:01:25.860Z,15.63
2018-08-13T22:03:57.439Z,14.75
2018-08-13T22:06:28.932Z,14.98
2018-08-13T22:09:00.914Z,15.38
2018-08-13T22:11:32.336Z,14.15
2018-08-13T22:14:03.931Z,14.00
2018-08-13T22:16:35.450Z,15.00
2018-08-13T22:19:07.199Z,14.20
2018-08-13T22:21:38.751Z,14.55
2018-08-13T22:24:26.196Z,14.15
2018-08-13T22:26:57.722Z,14.38
2018-08-13T22:29:29.097Z,13.45
2018-08-13T22:32:00.917Z,13.78
2018-08-13T22:34:32.479Z,13.93
2018-08-13T22:37:03.904Z,13.15
2018-08-13T22:39:35.492Z,12.68
2018-08-13T22:42:07.001Z,12.68
2018-08-13T22:44:38.423Z,12.63
2018-08-13T22:47:09.866Z,13.03
2018-08-13T22:49:41.425Z,12.40
2018-08-13T22:52:12.797Z,11.78
2018-08-13T22:54:44.325Z,11.95
2018-08-13T22:57:15.839Z,11.88
2018-08-13T22:59:47.216Z,11.85
2018-08-13T23:02:18.713Z,11.57
2018-08-13T23:04:50.020Z,9.90
2018-08-13T23:07:21.434Z,6.55
2018-08-13T23:09:52.958Z,4.80
2018-08-13T23:12:24.279Z,4.42
2018-08-13T23:14:56.133Z,4.08
2018-08-13T23:17:27.362Z,3.80
2018-08-13T23:19:58.763Z,4.15
2018-08-13T23:22:58.147Z,3.87
2018-08-13T23:25:30.532Z,3.40
2018-08-13T23:28:02.932Z,3.27
2018-08-13T23:30:34.434Z,3.27
2018-08-13T23:33:07.355Z,2.77
2018-08-13T23:35:39.074Z,2.92
2018-08-13T23:38:10.204Z,3.00
2018-08-13T23:40:41.663Z,2.98
2018-08-13T23:43:14.082Z,2.98
2018-08-13T23:45:46.411Z,2.72
2018-08-13T23:48:18.236Z,3.17
2018-08-13T23:50:50.352Z,2.50
2018-08-13T23:53:21.952Z,2.35
2018-08-13T23:55:53.503Z,3.00
2018-08-13T23:58:25.125Z,2.75
